Time;durP1;ratioP1;P1;durP2;ratioP2;P2;SDS_P1;SDS_P2;PMS_P1;PMS_P2;Temp;Humidity;BMP_temperature;BMP_pressure;BME280_temperature;BME280_humidity;BME280_pressure;Samples;Min_cycle;Max_cycle;Signal;HPM_P1;HPM_P2
2023/06/17 00:00:08;;;;;;;81.00;2.30;;;21.20;25.50;;;;;;4996973;28;20166;-78
2023/06/17 00:02:34;;;;;;;81.07;2.50;;;21.20;25.60;;;;;;4996665;28;20205;-78
2023/06/17 00:05:03;;;;;;;88.93;2.87;;;21.10;25.70;;;;;;4995069;28;20414;-78
2023/06/17 00:07:29;;;;;;;81.30;2.43;;;21.10;25.70;;;;;;4996377;28;20426;-78
2023/06/17 00:09:55;;;;;;;83.63;3.13;;;20.90;26.10;;;;;;4996310;28;20423;-79
2023/06/17 00:12:22;;;;;;;81.33;2.57;;;20.80;26.50;;;;;;4994994;28;20186;-78
2023/06/17 00:14:48;;;;;;;81.43;2.73;;;20.70;26.50;;;;;;4994208;28;20417;-77
2023/06/17 00:17:14;;;;;;;81.67;2.70;;;20.20;26.50;;;;;;4993078;28;20422;-76
2023/06/17 00:19:40;;;;;;;86.17;3.00;;;20.20;27.10;;;;;;4992648;28;20230;-76
2023/06/17 00:22:08;;;;;;;82.97;2.87;;;20.40;27.30;;;;;;4992656;28;20409;-77
2023/06/17 00:24:34;;;;;;;81.27;2.60;;;20.50;26.30;;;;;;4992904;28;20412;-76
2023/06/17 00:27:00;;;;;;;81.07;2.17;;;20.60;26.50;;;;;;4992679;28;20488;-77
2023/06/17 00:29:26;;;;;;;81.17;2.50;;;20.50;26.80;;;;;;4993073;28;20997;-77
2023/06/17 00:31:51;;;;;;;81.80;2.80;;;21.10;26.80;;;;;;4991358;28;20440;-77
2023/06/17 00:34:17;;;;;;;82.00;3.00;;;20.70;26.50;;;;;;4991933;28;20178;-77
2023/06/17 00:36:42;;;;;;;81.17;2.40;;;20.70;26.50;;;;;;4992947;28;20636;-77
2023/06/17 00:39:08;;;;;;;81.67;2.60;;;20.70;26.30;;;;;;4997029;28;20470;-77
2023/06/17 00:41:34;;;;;;;84.10;2.70;;;20.60;26.40;;;;;;4996679;28;20246;-77
2023/06/17 00:44:00;;;;;;;81.17;2.37;;;20.60;26.20;;;;;;4996366;28;20413;-77
2023/06/17 00:46:41;;;;;;;81.70;2.57;;;20.40;26.30;;;;;;4996534;28;20174;-77
2023/06/17 00:49:11;;;;;;;81.50;2.27;;;20.50;26.30;;;;;;4996511;28;20448;-77
2023/06/17 00:51:38;;;;;;;81.57;2.57;;;20.60;27.30;;;;;;4992164;28;20397;-77
2023/06/17 00:54:05;;;;;;;81.63;2.57;;;20.30;26.90;;;;;;4991733;28;20431;-77
2023/06/17 00:56:33;;;;;;;80.97;2.00;;;20.10;27.20;;;;;;4991479;28;20420;-77
2023/06/17 00:59:00;;;;;;;81.40;2.60;;;20.10;26.80;;;;;;4991796;28;20540;-77
2023/06/17 01:01:26;;;;;;;83.10;2.73;;;20.20;26.80;;;;;;4991980;28;20419;-77
2023/06/17 01:03:53;;;;;;;132.03;3.20;;;20.30;26.60;;;;;;4990963;28;20831;-76
2023/06/17 01:06:42;;;;;;;82.80;2.83;;;20.40;27.10;;;;;;4992996;28;20184;-76
2023/06/17 01:09:13;;;;;;;86.40;3.50;;;20.50;27.30;;;;;;4996154;28;20436;-77
2023/06/17 01:11:41;;;;;;;81.50;2.40;;;20.10;27.00;;;;;;4996054;28;20774;-77
2023/06/17 01:14:10;;;;;;;81.30;2.30;;;19.70;27.20;;;;;;4996128;28;20428;-76
2023/06/17 01:16:42;;;;;;;82.20;2.93;;;19.20;27.90;;;;;;4995326;28;20412;-76
2023/06/17 01:19:18;;;;;;;81.37;2.23;;;18.70;29.00;;;;;;4995697;28;20566;-76
2023/06/17 01:21:48;;;;;;;81.50;2.33;;;18.30;29.80;;;;;;4995908;28;20893;-76
2023/06/17 01:24:28;;;;;;;83.27;3.03;;;18.60;29.50;;;;;;4995632;28;20832;-77
2023/06/17 01:26:59;;;;;;;81.50;2.60;;;19.00;29.20;;;;;;4995509;28;20425;-77
2023/06/17 01:29:37;;;;;;;82.40;2.70;;;19.70;29.00;;;;;;4995740;28;20448;-76
2023/06/17 01:32:05;;;;;;;83.40;3.07;;;19.80;28.10;;;;;;4995731;28;20966;-77
2023/06/17 01:34:54;;;;;;;81.97;2.63;;;19.70;28.60;;;;;;4995463;28;20412;-76
2023/06/17 01:37:29;;;;;;;81.67;2.67;;;19.70;27.40;;;;;;4995227;28;20868;-76
2023/06/17 01:39:57;;;;;;;83.90;3.20;;;19.80;27.80;;;;;;4995290;28;20467;-76
2023/06/17 01:42:35;;;;;;;82.27;2.50;;;20.00;27.70;;;;;;4995721;28;20849;-77
2023/06/17 01:45:05;;;;;;;87.17;2.90;;;20.00;28.10;;;;;;4994857;28;20408;-76
2023/06/17 01:47:32;;;;;;;83.37;2.93;;;19.90;27.90;;;;;;4995686;28;20443;-77
2023/06/17 01:49:59;;;;;;;81.97;2.50;;;19.80;28.10;;;;;;4995179;28;20451;-77
2023/06/17 01:52:25;;;;;;;81.60;2.20;;;19.90;28.20;;;;;;4995294;28;20423;-76
2023/06/17 01:54:51;;;;;;;81.87;2.50;;;19.70;27.90;;;;;;4995096;28;20916;-76
2023/06/17 01:57:17;;;;;;;81.87;2.30;;;19.70;28.20;;;;;;4993527;28;20511;-76
2023/06/17 01:59:43;;;;;;;81.53;2.27;;;19.80;28.40;;;;;;4994548;28;20215;-77
2023/06/17 02:02:08;;;;;;;84.50;2.97;;;19.70;28.00;;;;;;4995073;28;20182;-77
2023/06/17 02:04:34;;;;;;;82.30;2.50;;;19.70;27.80;;;;;;4996968;28;20419;-77
2023/06/17 02:06:59;;;;;;;89.80;5.43;;;19.60;28.50;;;;;;4994776;28;20204;-77
2023/06/17 02:09:25;;;;;;;83.80;2.97;;;19.50;28.90;;;;;;4994612;28;20210;-77
2023/06/17 02:11:51;;;;;;;82.63;2.93;;;19.40;28.80;;;;;;4994825;28;20187;-77
2023/06/17 02:14:16;;;;;;;82.50;2.50;;;19.40;28.50;;;;;;4994942;28;20181;-77
2023/06/17 02:16:48;;;;;;;82.90;2.97;;;19.40;28.70;;;;;;4994449;28;20247;-77
2023/06/17 02:19:15;;;;;;;82.20;2.70;;;19.50;28.90;;;;;;4993468;28;20658;-77
2023/06/17 02:21:41;;;;;;;82.40;2.90;;;19.20;29.30;;;;;;4994777;28;20918;-77
2023/06/17 02:24:07;;;;;;;82.37;2.63;;;18.70;29.20;;;;;;4994701;28;20414;-77
2023/06/17 02:26:32;;;;;;;82.63;2.40;;;18.90;29.30;;;;;;4994514;28;20766;-77
2023/06/17 02:28:58;;;;;;;82.80;2.93;;;19.10;29.20;;;;;;4994304;28;20204;-77
2023/06/17 02:31:26;;;;;;;84.90;2.70;;;19.40;29.40;;;;;;4994665;28;20543;-77
2023/06/17 02:33:51;;;;;;;83.10;2.93;;;19.20;28.70;;;;;;4994549;28;20234;-78
2023/06/17 02:36:19;;;;;;;84.10;2.70;;;19.30;28.60;;;;;;4994160;28;20419;-77
2023/06/17 02:38:44;;;;;;;83.97;3.03;;;19.30;28.70;;;;;;4993142;28;20247;-77
2023/06/17 02:41:10;;;;;;;83.30;3.17;;;19.20;29.60;;;;;;4993049;28;20458;-77
2023/06/17 02:43:36;;;;;;;82.37;2.33;;;19.30;29.40;;;;;;4993977;28;20190;-77
2023/06/17 02:46:02;;;;;;;82.37;2.30;;;19.20;29.40;;;;;;4994119;28;20436;-77
2023/06/17 02:48:27;;;;;;;83.60;2.67;;;19.10;29.20;;;;;;4993293;28;20221;-77
2023/06/17 02:50:56;;;;;;;82.17;2.27;;;19.20;29.60;;;;;;4993475;28;20193;-77
2023/06/17 02:53:22;;;;;;;82.80;2.70;;;18.90;29.30;;;;;;4993894;28;20182;-77
2023/06/17 02:55:49;;;;;;;82.17;2.23;;;18.80;29.10;;;;;;4993227;28;20486;-77
2023/06/17 02:58:18;;;;;;;82.30;2.40;;;19.20;29.40;;;;;;4993126;28;20817;-77
2023/06/17 03:00:45;;;;;;;84.30;3.07;;;18.90;29.20;;;;;;4992977;28;20441;-77
2023/06/17 03:03:11;;;;;;;82.27;2.40;;;19.20;29.70;;;;;;4993593;28;20494;-76
2023/06/17 03:05:41;;;;;;;82.77;2.70;;;19.10;29.90;;;;;;4993300;28;20496;-77
2023/06/17 03:08:07;;;;;;;82.50;2.50;;;19.10;30.20;;;;;;4993340;28;20203;-77
2023/06/17 03:10:33;;;;;;;83.90;3.20;;;18.60;29.90;;;;;;4993633;28;20562;-77
2023/06/17 03:13:00;;;;;;;84.23;3.10;;;18.60;29.70;;;;;;4993169;28;20204;-76
2023/06/17 03:15:26;;;;;;;82.10;2.23;;;18.60;29.80;;;;;;4993545;28;20914;-77
2023/06/17 03:17:52;;;;;;;83.03;2.40;;;18.80;30.50;;;;;;4993137;28;20523;-77
2023/06/17 03:20:18;;;;;;;82.80;2.80;;;18.50;30.10;;;;;;4992788;28;20417;-77
2023/06/17 03:22:44;;;;;;;82.70;2.63;;;18.60;30.00;;;;;;4993074;28;20457;-77
2023/06/17 03:25:11;;;;;;;82.47;2.50;;;18.80;30.00;;;;;;4993063;28;20882;-77
2023/06/17 03:27:36;;;;;;;81.90;2.10;;;19.00;30.70;;;;;;4993275;28;20166;-76
2023/06/17 03:30:03;;;;;;;83.47;2.90;;;19.00;31.10;;;;;;4993079;28;20929;-77
2023/06/17 03:32:28;;;;;;;82.20;2.37;;;18.50;30.90;;;;;;4993625;28;20175;-76
2023/06/17 03:34:54;;;;;;;82.50;2.50;;;18.80;30.40;;;;;;4993253;28;20431;-77
2023/06/17 03:37:22;;;;;;;83.00;2.77;;;18.70;30.10;;;;;;4992811;28;20268;-76
2023/06/17 03:39:48;;;;;;;82.50;2.23;;;18.80;29.70;;;;;;4993085;28;20687;-76
2023/06/17 03:42:15;;;;;;;82.40;2.40;;;18.90;30.00;;;;;;4993160;28;20449;-76
2023/06/17 03:44:40;;;;;;;82.97;2.67;;;18.70;30.30;;;;;;4992869;28;20631;-77
2023/06/17 03:47:06;;;;;;;82.43;2.30;;;18.10;30.90;;;;;;4993056;28;20421;-77
2023/06/17 03:49:32;;;;;;;83.23;2.90;;;18.20;30.60;;;;;;4993324;28;20269;-76
2023/06/17 03:51:57;;;;;;;83.90;3.20;;;18.10;30.80;;;;;;4992961;28;20421;-76
2023/06/17 03:54:23;;;;;;;82.70;2.33;;;18.30;30.40;;;;;;4992899;28;20180;-76
2023/06/17 03:56:49;;;;;;;82.97;2.60;;;18.20;30.00;;;;;;4992065;28;20275;-77
2023/06/17 03:59:15;;;;;;;83.80;2.93;;;18.40;29.80;;;;;;4992481;28;20205;-76
2023/06/17 04:01:41;;;;;;;83.20;2.50;;;18.50;29.90;;;;;;4992873;28;20637;-76
2023/06/17 04:04:07;;;;;;;82.30;2.40;;;18.60;29.80;;;;;;5039924;23;20492;-73
2023/06/17 04:06:35;;;;;;;82.60;2.13;;;18.90;30.00;;;;;;4971769;28;20461;-72
2023/06/17 04:09:01;;;;;;;82.30;2.23;;;18.80;30.10;;;;;;4982215;28;20413;-72
2023/06/17 04:11:28;;;;;;;83.67;3.10;;;18.90;29.30;;;;;;4991685;28;20409;-72
2023/06/17 04:13:54;;;;;;;82.90;2.50;;;19.30;29.60;;;;;;4988488;28;20435;-72
2023/06/17 04:16:21;;;;;;;83.53;2.70;;;19.20;29.80;;;;;;4971749;28;20838;-72
2023/06/17 04:18:47;;;;;;;82.17;2.07;;;19.20;29.50;;;;;;4961034;28;20584;-72
2023/06/17 04:21:12;;;;;;;82.60;2.33;;;18.80;29.30;;;;;;4955840;28;20423;-72
2023/06/17 04:23:38;;;;;;;83.20;2.80;;;19.30;29.80;;;;;;4964224;28;20542;-72
2023/06/17 04:26:03;;;;;;;82.83;2.53;;;19.00;29.80;;;;;;4972613;28;20179;-72
2023/06/17 04:28:32;;;;;;;82.60;2.57;;;19.30;30.00;;;;;;4972430;28;20188;-72
2023/06/17 04:31:02;;;;;;;82.60;2.47;;;19.30;29.90;;;;;;4971477;28;20636;-72
2023/06/17 04:33:30;;;;;;;82.47;2.37;;;19.10;30.00;;;;;;4971768;28;20432;-73
2023/06/17 04:35:57;;;;;;;83.27;2.73;;;19.10;29.00;;;;;;4970791;28;20435;-72
2023/06/17 04:38:23;;;;;;;82.87;2.70;;;19.10;29.40;;;;;;4971278;28;20459;-72
2023/06/17 04:40:52;;;;;;;83.27;2.40;;;19.30;30.00;;;;;;4970507;28;20415;-72
2023/06/17 04:43:20;;;;;;;82.77;2.40;;;19.00;29.70;;;;;;4970998;28;20493;-72
2023/06/17 04:45:45;;;;;;;83.63;2.80;;;19.00;28.90;;;;;;4953705;28;20453;-72
2023/06/17 04:48:11;;;;;;;83.20;2.40;;;19.10;29.30;;;;;;4971553;28;20424;-72
2023/06/17 04:50:37;;;;;;;91.93;2.77;;;19.00;29.40;;;;;;4970536;28;20662;-72
2023/06/17 04:53:05;;;;;;;82.87;2.63;;;19.10;29.10;;;;;;4970897;28;20530;-73
2023/06/17 04:55:35;;;;;;;82.67;2.50;;;19.20;29.60;;;;;;4971214;28;20682;-72
2023/06/17 04:58:02;;;;;;;82.50;2.20;;;19.00;29.20;;;;;;4972531;28;20424;-72
2023/06/17 05:00:28;;;;;;;83.13;2.50;;;18.60;29.30;;;;;;4970964;28;20899;-72
2023/06/17 05:02:53;;;;;;;83.80;2.97;;;18.70;30.00;;;;;;4970776;28;20444;-73
2023/06/17 05:05:19;;;;;;;83.40;2.87;;;19.20;29.60;;;;;;4970852;28;20705;-72
2023/06/17 05:07:45;;;;;;;82.37;2.30;;;19.10;28.80;;;;;;4971675;28;20646;-72
2023/06/17 05:10:10;;;;;;;83.17;2.60;;;19.30;29.00;;;;;;4971872;28;20638;-73
2023/06/17 05:12:36;;;;;;;82.60;2.33;;;18.90;29.30;;;;;;4970934;28;20185;-72
2023/06/17 05:15:01;;;;;;;83.40;2.60;;;19.20;29.30;;;;;;4970373;28;20655;-72
2023/06/17 05:17:27;;;;;;;82.37;2.43;;;18.60;29.20;;;;;;4972282;28;20272;-72
2023/06/17 05:19:52;;;;;;;82.83;2.73;;;18.50;29.60;;;;;;4971350;28;20207;-72
2023/06/17 05:22:18;;;;;;;82.53;2.37;;;18.30;30.40;;;;;;4972161;28;20201;-72
2023/06/17 05:24:44;;;;;;;83.10;2.77;;;18.20;29.90;;;;;;4970572;28;20194;-72
2023/06/17 05:27:09;;;;;;;82.57;2.30;;;18.00;30.20;;;;;;4971717;28;20194;-72
2023/06/17 05:29:35;;;;;;;82.50;2.50;;;18.10;30.10;;;;;;4971553;28;20190;-72
2023/06/17 05:32:00;;;;;;;82.87;2.77;;;18.20;30.00;;;;;;4970942;28;20268;-72
2023/06/17 05:34:26;;;;;;;83.17;2.90;;;18.40;31.10;;;;;;4970968;28;20569;-72
2023/06/17 05:36:51;;;;;;;82.77;2.63;;;18.80;29.90;;;;;;4970437;28;20257;-72
2023/06/17 05:39:17;;;;;;;82.87;2.63;;;19.10;29.10;;;;;;4971252;28;20272;-72
2023/06/17 05:41:42;;;;;;;82.50;2.50;;;19.30;28.90;;;;;;4972583;28;20179;-72
2023/06/17 05:44:08;;;;;;;82.87;2.63;;;19.60;28.40;;;;;;4972299;28;20212;-73
2023/06/17 05:46:33;;;;;;;83.90;2.90;;;19.10;28.60;;;;;;4971894;28;20556;-72
2023/06/17 05:48:59;;;;;;;82.57;2.40;;;19.40;28.90;;;;;;4954695;28;20190;-72
2023/06/17 05:51:27;;;;;;;82.50;2.10;;;18.90;29.00;;;;;;4953481;28;20266;-72
2023/06/17 05:53:53;;;;;;;83.20;2.63;;;18.90;29.40;;;;;;4937343;29;20223;-72
2023/06/17 05:56:19;;;;;;;82.97;2.77;;;19.00;29.90;;;;;;4937141;29;20909;-72
2023/06/17 05:58:44;;;;;;;82.80;2.50;;;19.20;29.30;;;;;;4937114;29;20200;-72
2023/06/17 06:01:10;;;;;;;83.00;2.90;;;19.60;29.30;;;;;;4937232;29;20187;-72
2023/06/17 06:03:35;;;;;;;82.60;2.67;;;19.60;29.50;;;;;;4937333;29;20180;-72
2023/06/17 06:06:01;;;;;;;82.93;2.53;;;19.50;29.10;;;;;;4936774;29;20608;-72
2023/06/17 06:08:26;;;;;;;82.87;2.77;;;19.50;28.70;;;;;;4937349;29;20218;-73
2023/06/17 06:10:52;;;;;;;82.07;2.10;;;19.50;29.60;;;;;;4936856;29;20185;-72
2023/06/17 06:13:18;;;;;;;83.00;2.70;;;19.80;29.10;;;;;;4937152;29;20682;-72
2023/06/17 06:15:43;;;;;;;90.23;2.70;;;20.10;28.40;;;;;;4937043;29;20255;-72
2023/06/17 06:18:09;;;;;;;83.60;3.10;;;20.30;28.00;;;;;;4937015;29;20208;-72
2023/06/17 06:20:34;;;;;;;82.70;2.23;;;19.90;28.70;;;;;;4936942;29;20634;-73
2023/06/17 06:23:00;;;;;;;84.00;2.90;;;20.50;29.00;;;;;;4936857;29;20181;-72
2023/06/17 06:25:27;;;;;;;84.87;3.13;;;19.90;28.80;;;;;;4936796;29;20682;-72
2023/06/17 06:27:52;;;;;;;82.37;2.40;;;20.50;28.30;;;;;;4936471;29;20188;-72
2023/06/17 06:30:18;;;;;;;82.50;2.60;;;20.70;28.20;;;;;;4936910;29;20421;-72
2023/06/17 06:32:43;;;;;;;82.20;2.40;;;20.20;28.50;;;;;;4936623;29;20550;-73
2023/06/17 06:35:09;;;;;;;82.67;2.67;;;20.30;28.80;;;;;;4936400;29;20198;-73
2023/06/17 06:37:35;;;;;;;83.07;2.60;;;20.20;29.00;;;;;;4936539;29;20217;-73
2023/06/17 06:40:00;;;;;;;82.20;2.40;;;20.80;28.50;;;;;;4936419;29;20209;-72
2023/06/17 06:42:26;;;;;;;82.93;2.30;;;21.00;27.70;;;;;;4936561;29;20168;-73
2023/06/17 06:44:52;;;;;;;82.57;2.30;;;21.30;26.90;;;;;;4936182;29;20239;-72
2023/06/17 06:47:18;;;;;;;82.33;2.43;;;21.60;27.10;;;;;;4936223;29;20209;-72
2023/06/17 06:49:43;;;;;;;82.57;2.80;;;21.60;26.90;;;;;;4936355;29;20214;-73
2023/06/17 06:52:09;;;;;;;84.03;2.53;;;22.00;26.40;;;;;;4936691;29;20417;-73
2023/06/17 06:54:35;;;;;;;82.60;2.63;;;22.40;25.90;;;;;;4936407;29;20203;-73
2023/06/17 06:57:01;;;;;;;82.50;2.70;;;22.60;25.80;;;;;;4936092;29;20221;-72
2023/06/17 06:59:26;;;;;;;82.13;2.30;;;22.30;25.80;;;;;;4936300;29;20194;-72
2023/06/17 07:01:52;;;;;;;83.03;2.77;;;22.10;26.90;;;;;;4935751;29;20782;-72
2023/06/17 07:04:20;;;;;;;81.87;2.10;;;22.30;26.70;;;;;;4936160;29;20211;-73
2023/06/17 07:06:46;;;;;;;82.10;2.20;;;22.60;26.50;;;;;;4954981;29;20222;-73
2023/06/17 07:09:12;;;;;;;82.33;2.50;;;22.70;26.00;;;;;;4955429;29;20446;-72
2023/06/17 07:11:37;;;;;;;82.80;2.67;;;22.30;26.30;;;;;;4954957;29;20438;-73
2023/06/17 07:14:03;;;;;;;82.27;2.53;;;22.30;26.30;;;;;;4955106;29;20227;-73
2023/06/17 07:16:29;;;;;;;82.77;2.63;;;22.70;26.30;;;;;;4954762;29;20259;-72
2023/06/17 07:18:55;;;;;;;82.47;2.80;;;23.20;25.70;;;;;;4937298;29;20227;-73
2023/06/17 07:21:20;;;;;;;83.57;3.07;;;23.40;25.50;;;;;;4944789;28;20183;-73
2023/06/17 07:23:46;;;;;;;82.60;2.53;;;23.50;25.00;;;;;;4945614;29;20214;-73
2023/06/17 07:26:11;;;;;;;82.77;2.70;;;23.40;24.80;;;;;;4943701;29;20177;-73
2023/06/17 07:28:37;;;;;;;82.30;2.63;;;23.10;25.30;;;;;;4945149;29;20267;-72
2023/06/17 07:31:02;;;;;;;81.60;2.30;;;23.30;25.20;;;;;;4945006;29;20655;-73
2023/06/17 07:33:28;;;;;;;85.43;4.03;;;23.50;25.00;;;;;;4943887;29;20275;-73
2023/06/17 07:35:54;;;;;;;82.27;2.83;;;23.10;24.90;;;;;;4945059;29;20199;-73
2023/06/17 07:38:19;;;;;;;82.07;2.80;;;23.00;25.70;;;;;;4944748;29;20232;-73
2023/06/17 07:40:48;;;;;;;83.33;2.80;;;23.10;24.90;;;;;;4943761;29;20655;-72
2023/06/17 07:43:13;;;;;;;82.43;2.77;;;23.00;25.30;;;;;;4926727;29;20190;-73
2023/06/17 07:45:39;;;;;;;81.70;2.63;;;23.50;24.80;;;;;;4943929;29;20437;-73
2023/06/17 07:48:04;;;;;;;82.90;2.97;;;23.50;24.70;;;;;;4945266;29;20204;-73
2023/06/17 07:50:30;;;;;;;81.80;2.70;;;23.70;24.90;;;;;;4943526;29;20173;-73
2023/06/17 07:52:57;;;;;;;82.07;2.70;;;23.80;25.50;;;;;;4945155;29;20195;-73
2023/06/17 07:55:22;;;;;;;81.80;2.63;;;24.00;24.70;;;;;;4944244;29;20569;-73
2023/06/17 07:57:48;;;;;;;81.97;2.40;;;24.00;23.70;;;;;;4943222;29;20429;-73
2023/06/17 08:00:14;;;;;;;81.00;2.53;;;23.80;24.00;;;;;;4944989;29;20198;-73
2023/06/17 08:02:40;;;;;;;87.37;2.50;;;23.50;25.00;;;;;;4944539;29;20168;-73
2023/06/17 08:05:07;;;;;;;81.90;2.90;;;23.50;24.30;;;;;;4943297;29;20814;-73
2023/06/17 08:07:33;;;;;;;82.30;2.87;;;23.60;23.80;;;;;;4943142;29;20418;-73
2023/06/17 08:09:58;;;;;;;82.27;2.87;;;23.60;23.70;;;;;;4939174;29;20979;-73
2023/06/17 08:12:24;;;;;;;81.20;2.80;;;23.60;23.40;;;;;;4934811;29;20198;-73
2023/06/17 08:14:50;;;;;;;81.37;2.70;;;24.10;23.30;;;;;;4934387;29;20246;-73
2023/06/17 08:17:16;;;;;;;86.37;3.60;;;24.00;22.40;;;;;;4934164;29;20442;-73
2023/06/17 08:19:42;;;;;;;80.57;2.30;;;24.40;21.50;;;;;;4934312;29;20949;-73
2023/06/17 08:22:08;;;;;;;80.67;2.50;;;25.00;22.00;;;;;;4934790;29;20601;-74
2023/06/17 08:24:34;;;;;;;85.10;2.77;;;24.60;21.80;;;;;;4934469;29;20440;-74
2023/06/17 08:26:59;;;;;;;85.07;3.37;;;25.00;22.90;;;;;;4934664;29;20411;-74
2023/06/17 08:29:25;;;;;;;82.23;2.97;;;25.30;21.00;;;;;;4945686;28;20193;-75
2023/06/17 08:31:54;;;;;;;82.30;2.80;;;25.50;21.10;;;;;;4944660;28;20175;-75
2023/06/17 08:34:23;;;;;;;80.63;2.60;;;24.70;20.30;;;;;;4944590;29;20684;-75
2023/06/17 08:36:54;;;;;;;80.57;2.50;;;24.60;21.20;;;;;;4944468;29;20427;-75
2023/06/17 08:39:20;;;;;;;80.97;2.90;;;24.70;21.20;;;;;;4943590;29;20455;-75
2023/06/17 08:41:46;;;;;;;81.20;2.83;;;25.50;19.80;;;;;;4942551;29;20417;-73
2023/06/17 08:44:13;;;;;;;80.87;2.87;;;25.60;20.10;;;;;;4944433;29;20450;-73
2023/06/17 08:46:39;;;;;;;79.87;2.60;;;25.80;19.00;;;;;;4944366;29;20825;-73
2023/06/17 08:49:07;;;;;;;81.27;3.10;;;25.70;20.70;;;;;;4947971;29;20422;-73
2023/06/17 08:51:33;;;;;;;81.63;3.00;;;26.00;20.00;;;;;;4953346;29;20415;-73
2023/06/17 08:54:00;;;;;;;79.47;2.33;;;26.50;19.70;;;;;;4953251;28;20852;-73
2023/06/17 08:56:26;;;;;;;80.10;2.73;;;25.90;16.70;;;;;;4953063;29;20415;-73
2023/06/17 08:58:55;;;;;;;79.37;2.33;;;25.90;18.00;;;;;;4953303;29;20565;-73
2023/06/17 09:01:22;;;;;;;80.40;2.80;;;26.50;17.30;;;;;;4943566;29;20184;-73
2023/06/17 09:03:50;;;;;;;80.23;2.97;;;26.10;16.50;;;;;;4947557;28;20434;-73
2023/06/17 09:06:24;;;;;;;79.47;2.53;;;25.70;16.60;;;;;;4953629;29;20418;-73
2023/06/17 09:08:55;;;;;;;79.93;2.87;;;26.10;15.70;;;;;;4953023;29;20783;-73
2023/06/17 09:11:25;;;;;;;80.67;3.03;;;26.30;16.30;;;;;;4944368;29;20415;-73
2023/06/17 09:13:52;;;;;;;91.07;3.10;;;26.40;15.20;;;;;;4943345;29;20554;-73
2023/06/17 09:16:25;;;;;;;78.20;2.07;;;25.80;15.00;;;;;;4942231;29;20771;-72
2023/06/17 09:18:57;;;;;;;79.50;2.20;;;25.80;13.40;;;;;;4942903;29;20457;-73
2023/06/17 09:21:24;;;;;;;78.37;2.43;;;26.00;14.00;;;;;;4950666;29;20414;-73
2023/06/17 09:23:58;;;;;;;81.70;2.57;;;26.30;12.70;;;;;;4952849;29;20415;-73
2023/06/17 09:26:41;;;;;;;78.10;2.47;;;25.80;13.80;;;;;;4953021;28;20410;-73
2023/06/17 09:29:08;;;;;;;77.87;2.43;;;26.50;13.00;;;;;;4957043;29;20405;-73
2023/06/17 09:31:51;;;;;;;77.17;1.90;;;26.80;12.60;;;;;;4956982;29;20452;-73
2023/06/17 09:34:17;;;;;;;78.20;2.50;;;27.30;12.90;;;;;;4957043;29;20469;-73
2023/06/17 09:36:43;;;;;;;77.30;2.30;;;28.00;11.00;;;;;;4956537;29;20429;-73
2023/06/17 09:39:11;;;;;;;76.77;1.90;;;27.80;10.90;;;;;;4956743;29;20451;-73
2023/06/17 09:41:37;;;;;;;78.70;2.60;;;27.00;9.90;;;;;;4956890;29;20952;-73
2023/06/17 09:44:03;;;;;;;77.67;2.77;;;27.00;11.20;;;;;;4957181;28;20433;-73
2023/06/17 09:46:35;;;;;;;77.40;2.70;;;26.30;11.10;;;;;;4956364;28;20411;-73
2023/06/17 09:49:06;;;;;;;77.13;2.40;;;26.40;11.30;;;;;;4956436;29;20179;-73
2023/06/17 09:51:38;;;;;;;76.77;2.23;;;27.40;11.70;;;;;;4956715;29;20417;-73
2023/06/17 09:54:07;;;;;;;76.27;2.03;;;27.80;10.40;;;;;;4956551;28;20509;-73
2023/06/17 09:56:34;;;;;;;76.33;2.30;;;27.20;10.20;;;;;;4956285;29;20417;-73
2023/06/17 09:59:01;;;;;;;77.57;2.83;;;27.30;9.90;;;;;;4956189;28;20890;-73
2023/06/17 10:01:30;;;;;;;75.57;1.90;;;27.20;8.60;;;;;;4956314;29;20411;-73
2023/06/17 10:03:57;;;;;;;75.90;2.13;;;26.40;8.70;;;;;;4947978;29;20949;-73
2023/06/17 10:06:25;;;;;;;75.97;2.30;;;26.80;9.70;;;;;;4946274;29;20450;-72
2023/06/17 10:08:52;;;;;;;75.87;2.40;;;26.50;10.40;;;;;;4947256;29;20415;-73
2023/06/17 10:11:19;;;;;;;76.00;2.53;;;26.60;10.60;;;;;;4945630;29;20515;-73
2023/06/17 10:13:53;;;;;;;75.47;2.07;;;26.20;11.60;;;;;;4945478;29;20421;-73
2023/06/17 10:16:20;;;;;;;75.57;2.40;;;26.50;11.30;;;;;;4945710;29;20443;-73
2023/06/17 10:18:51;;;;;;;75.20;2.20;;;27.10;11.90;;;;;;4945147;29;20453;-73
2023/06/17 10:21:20;;;;;;;75.33;2.30;;;27.30;10.60;;;;;;4945729;29;20507;-73
2023/06/17 10:23:47;;;;;;;75.10;2.10;;;27.20;10.10;;;;;;4947902;29;20419;-73
2023/06/17 10:26:13;;;;;;;75.07;2.33;;;27.10;10.80;;;;;;4955590;29;20415;-73
2023/06/17 10:28:43;;;;;;;75.60;2.50;;;27.40;11.60;;;;;;4956285;28;20457;-71
2023/06/17 10:31:27;;;;;;;75.77;2.60;;;28.50;10.90;;;;;;4956028;29;20481;-72
2023/06/17 10:33:53;;;;;;;76.50;2.80;;;29.10;8.60;;;;;;4980986;23;20880;-71
2023/06/17 10:36:22;;;;;;;75.80;2.80;;;27.90;9.80;;;;;;4969616;28;20449;-74
2023/06/17 10:39:10;;;;;;;74.50;2.07;;;27.30;10.50;;;;;;4974562;28;20458;-73
2023/06/17 10:41:41;;;;;;;74.90;2.50;;;27.30;10.80;;;;;;4974206;28;20741;-73
2023/06/17 10:44:34;;;;;;;76.47;2.60;;;28.10;10.40;;;;;;4975655;28;20795;-72
2023/06/17 10:47:02;;;;;;;74.53;2.10;;;27.60;10.10;;;;;;4974109;28;20401;-73
2023/06/17 10:49:38;;;;;;;75.10;2.50;;;27.60;10.50;;;;;;4976045;28;20414;-72
2023/06/17 10:52:05;;;;;;;74.30;2.13;;;28.10;10.80;;;;;;4975706;28;20452;-73
2023/06/17 10:54:32;;;;;;;77.40;2.87;;;27.10;10.50;;;;;;4975351;28;20434;-71
2023/06/17 10:57:00;;;;;;;74.90;2.57;;;27.50;11.70;;;;;;4975455;28;20409;-73
2023/06/17 10:59:28;;;;;;;74.67;2.30;;;27.60;10.40;;;;;;4974247;28;20491;-73
2023/06/17 11:02:07;;;;;;;74.37;2.17;;;27.70;10.50;;;;;;4975363;28;20892;-73
2023/06/17 11:04:40;;;;;;;75.20;2.20;;;28.40;10.60;;;;;;4975312;28;20508;-73
2023/06/17 11:07:07;;;;;;;74.57;2.00;;;27.90;10.30;;;;;;4975272;28;20448;-73
2023/06/17 11:09:34;;;;;;;74.57;2.27;;;27.60;10.10;;;;;;4975531;28;20911;-73
2023/06/17 11:12:06;;;;;;;75.00;2.67;;;27.90;10.30;;;;;;4975278;28;20497;-72
2023/06/17 11:14:36;;;;;;;74.83;2.57;;;27.60;11.00;;;;;;4975162;28;20531;-73
2023/06/17 11:17:02;;;;;;;75.10;2.63;;;28.30;9.80;;;;;;4975388;28;20445;-72
2023/06/17 11:19:28;;;;;;;75.13;2.50;;;28.00;10.70;;;;;;4975078;28;20453;-72
2023/06/17 11:22:01;;;;;;;79.40;2.57;;;28.10;9.60;;;;;;4974996;28;20182;-72
2023/06/17 11:24:27;;;;;;;74.20;2.27;;;27.60;10.20;;;;;;4975177;28;20197;-72
2023/06/17 11:26:54;;;;;;;75.20;2.70;;;28.10;10.40;;;;;;4975253;28;20418;-73
2023/06/17 11:29:19;;;;;;;74.10;2.40;;;28.50;9.90;;;;;;4975622;28;20636;-73
2023/06/17 11:31:45;;;;;;;75.07;2.47;;;29.10;10.30;;;;;;4975041;28;20418;-72
2023/06/17 11:34:11;;;;;;;74.30;2.10;;;30.60;8.60;;;;;;4974406;28;20209;-73
2023/06/17 11:36:38;;;;;;;75.37;2.70;;;31.80;6.70;;;;;;4974662;28;20222;-72
2023/06/17 11:39:04;;;;;;;74.90;2.30;;;32.10;6.60;;;;;;4974695;28;20461;-73
2023/06/17 11:41:31;;;;;;;74.13;2.10;;;30.60;6.30;;;;;;4974902;28;20429;-72
2023/06/17 11:43:57;;;;;;;73.60;2.10;;;31.40;6.50;;;;;;4974647;28;20175;-73
2023/06/17 11:46:24;;;;;;;73.70;2.13;;;33.30;7.20;;;;;;4974664;28;20406;-72
2023/06/17 11:48:50;;;;;;;73.33;2.23;;;34.40;4.50;;;;;;4974879;28;20842;-72
2023/06/17 11:51:19;;;;;;;73.40;2.10;;;33.10;4.90;;;;;;4974317;28;20446;-72
2023/06/17 11:53:47;;;;;;;72.87;2.20;;;31.40;6.70;;;;;;4974240;28;20171;-71
2023/06/17 11:56:20;;;;;;;73.40;2.20;;;30.40;7.40;;;;;;4973887;28;20417;-73
2023/06/17 11:58:46;;;;;;;72.57;2.10;;;30.20;8.40;;;;;;4974475;28;20442;-72
2023/06/17 12:01:13;;;;;;;72.90;2.40;;;31.30;8.20;;;;;;4974326;28;20876;-72
2023/06/17 12:03:44;;;;;;;72.40;2.10;;;31.80;6.70;;;;;;4974187;28;20409;-73
2023/06/17 12:06:19;;;;;;;71.97;2.30;;;31.30;7.10;;;;;;4973768;28;20422;-72
2023/06/17 12:08:55;;;;;;;71.97;2.03;;;32.00;6.90;;;;;;4974270;28;20880;-72
2023/06/17 12:11:29;;;;;;;72.17;2.33;;;32.70;5.60;;;;;;4972905;28;20413;-72
2023/06/17 12:13:54;;;;;;;71.80;2.00;;;33.00;5.50;;;;;;4974173;28;20417;-72
2023/06/17 12:16:33;;;;;;;71.60;2.00;;;33.70;5.90;;;;;;4973830;28;20756;-72
2023/06/17 12:18:59;;;;;;;71.40;2.10;;;34.00;4.80;;;;;;4974081;28;20206;-72
2023/06/17 12:21:26;;;;;;;71.00;1.90;;;32.90;5.70;;;;;;4973998;28;20625;-73
2023/06/17 12:23:53;;;;;;;71.70;2.30;;;33.70;5.30;;;;;;4974125;28;20397;-71
2023/06/17 12:26:20;;;;;;;70.80;2.10;;;33.40;4.80;;;;;;4975072;28;20424;-73
2023/06/17 12:28:45;;;;;;;70.47;1.93;;;33.10;5.90;;;;;;4974653;28;20414;-71
2023/06/17 12:31:12;;;;;;;69.63;1.70;;;34.40;5.30;;;;;;4973519;28;20468;-71
2023/06/17 12:33:38;;;;;;;69.57;1.90;;;35.80;5.40;;;;;;4973420;28;20174;-72
2023/06/17 12:36:05;;;;;;;69.80;1.90;;;36.40;3.50;;;;;;4973001;28;21016;-71
2023/06/17 12:38:31;;;;;;;70.00;2.20;;;34.70;3.40;;;;;;4973719;28;20457;-71